sensor_id;sensor_type;location;lat;lon;timestamp;P1;durP1;ratioP1;P2;durP2;ratioP2
7527;SDS011;3805;49.006;8.514;2023-03-01T00:01:57;17.80;;;14.90;;
7527;SDS011;3805;49.006;8.514;2023-03-01T00:04:45;17.40;;;14.10;;
7527;SDS011;3805;49.006;8.514;2023-03-01T00:07:34;17.60;;;14.47;;
7527;SDS011;3805;49.006;8.514;2023-03-01T00:10:24;20.87;;;15.87;;
7527;SDS011;3805;49.006;8.514;2023-03-01T00:13:13;18.10;;;16.10;;
7527;SDS011;3805;49.006;8.514;2023-03-01T00:16:02;20.47;;;16.07;;
7527;SDS011;3805;49.006;8.514;2023-03-01T00:18:51;19.30;;;14.60;;
7527;SDS011;3805;49.006;8.514;2023-03-01T00:21:42;20.33;;;14.10;;
7527;SDS011;3805;49.006;8.514;2023-03-01T00:24:31;19.90;;;15.07;;
7527;SDS011;3805;49.006;8.514;2023-03-01T00:27:21;19.00;;;15.53;;
7527;SDS011;3805;49.006;8.514;2023-03-01T00:30:10;18.10;;;14.40;;
7527;SDS011;3805;49.006;8.514;2023-03-01T00:32:59;20.60;;;15.47;;
7527;SDS011;3805;49.006;8.514;2023-03-01T00:35:48;21.67;;;15.50;;
7527;SDS011;3805;49.006;8.514;2023-03-01T00:38:37;17.23;;;14.90;;
7527;SDS011;3805;49.006;8.514;2023-03-01T00:41:26;18.30;;;14.90;;
7527;SDS011;3805;49.006;8.514;2023-03-01T00:44:16;20.40;;;15.00;;
7527;SDS011;3805;49.006;8.514;2023-03-01T00:47:04;17.57;;;14.60;;
7527;SDS011;3805;49.006;8.514;2023-03-01T00:49:53;21.03;;;15.03;;
7527;SDS011;3805;49.006;8.514;2023-03-01T00:52:42;20.20;;;15.40;;
7527;SDS011;3805;49.006;8.514;2023-03-01T00:55:30;20.33;;;15.10;;
7527;SDS011;3805;49.006;8.514;2023-03-01T00:58:19;20.70;;;16.00;;
7527;SDS011;3805;49.006;8.514;2023-03-01T01:01:09;19.33;;;15.80;;
7527;SDS011;3805;49.006;8.514;2023-03-01T01:04:06;20.50;;;15.57;;
7527;SDS011;3805;49.006;8.514;2023-03-01T01:06:56;21.07;;;15.63;;
7527;SDS011;3805;49.006;8.514;2023-03-01T01:09:44;18.50;;;15.00;;
7527;SDS011;3805;49.006;8.514;2023-03-01T01:12:33;33.07;;;16.60;;
7527;SDS011;3805;49.006;8.514;2023-03-01T01:15:21;20.60;;;15.30;;
7527;SDS011;3805;49.006;8.514;2023-03-01T01:18:11;18.17;;;15.63;;
7527;SDS011;3805;49.006;8.514;2023-03-01T01:21:03;21.00;;;14.87;;
7527;SDS011;3805;49.006;8.514;2023-03-01T01:23:53;21.27;;;17.20;;
7527;SDS011;3805;49.006;8.514;2023-03-01T01:26:42;24.33;;;15.87;;
7527;SDS011;3805;49.006;8.514;2023-03-01T01:29:30;21.23;;;16.30;;
7527;SDS011;3805;49.006;8.514;2023-03-01T01:32:19;17.10;;;13.53;;
7527;SDS011;3805;49.006;8.514;2023-03-01T01:35:09;18.70;;;15.73;;
7527;SDS011;3805;49.006;8.514;2023-03-01T01:37:57;18.10;;;15.60;;
7527;SDS011;3805;49.006;8.514;2023-03-01T01:40:46;17.73;;;15.70;;
7527;SDS011;3805;49.006;8.514;2023-03-01T01:43:36;21.43;;;16.80;;
7527;SDS011;3805;49.006;8.514;2023-03-01T01:46:25;20.73;;;15.47;;
7527;SDS011;3805;49.006;8.514;2023-03-01T01:49:19;21.67;;;15.77;;
7527;SDS011;3805;49.006;8.514;2023-03-01T01:52:16;22.30;;;15.07;;
7527;SDS011;3805;49.006;8.514;2023-03-01T01:55:08;22.60;;;17.07;;
7527;SDS011;3805;49.006;8.514;2023-03-01T01:58:01;27.60;;;17.87;;
7527;SDS011;3805;49.006;8.514;2023-03-01T02:00:51;24.03;;;16.90;;
7527;SDS011;3805;49.006;8.514;2023-03-01T02:03:39;18.00;;;14.40;;
7527;SDS011;3805;49.006;8.514;2023-03-01T02:06:32;24.50;;;18.10;;
7527;SDS011;3805;49.006;8.514;2023-03-01T02:09:23;20.70;;;15.87;;
7527;SDS011;3805;49.006;8.514;2023-03-01T02:12:12;20.43;;;17.43;;
7527;SDS011;3805;49.006;8.514;2023-03-01T02:15:02;21.60;;;16.53;;
7527;SDS011;3805;49.006;8.514;2023-03-01T02:17:51;19.20;;;15.50;;
7527;SDS011;3805;49.006;8.514;2023-03-01T02:20:43;24.70;;;16.80;;
7527;SDS011;3805;49.006;8.514;2023-03-01T02:23:37;18.23;;;15.83;;
7527;SDS011;3805;49.006;8.514;2023-03-01T02:26:29;22.40;;;17.10;;
7527;SDS011;3805;49.006;8.514;2023-03-01T02:29:23;19.97;;;15.63;;
7527;SDS011;3805;49.006;8.514;2023-03-01T02:32:12;21.17;;;16.40;;
7527;SDS011;3805;49.006;8.514;2023-03-01T02:35:02;21.77;;;16.07;;
7527;SDS011;3805;49.006;8.514;2023-03-01T02:37:53;22.13;;;15.63;;
7527;SDS011;3805;49.006;8.514;2023-03-01T02:40:44;24.50;;;17.00;;
7527;SDS011;3805;49.006;8.514;2023-03-01T02:43:34;22.33;;;17.50;;
7527;SDS011;3805;49.006;8.514;2023-03-01T02:46:25;23.37;;;16.87;;
7527;SDS011;3805;49.006;8.514;2023-03-01T02:49:21;21.43;;;16.00;;
7527;SDS011;3805;49.006;8.514;2023-03-01T02:52:16;24.13;;;19.37;;
7527;SDS011;3805;49.006;8.514;2023-03-01T02:55:10;22.43;;;17.77;;
7527;SDS011;3805;49.006;8.514;2023-03-01T02:57:59;20.97;;;17.37;;
7527;SDS011;3805;49.006;8.514;2023-03-01T03:00:50;28.43;;;17.00;;
7527;SDS011;3805;49.006;8.514;2023-03-01T03:03:41;21.47;;;16.57;;
7527;SDS011;3805;49.006;8.514;2023-03-01T03:06:30;21.70;;;17.80;;
7527;SDS011;3805;49.006;8.514;2023-03-01T03:09:19;19.03;;;16.03;;
7527;SDS011;3805;49.006;8.514;2023-03-01T03:12:07;21.53;;;17.53;;
7527;SDS011;3805;49.006;8.514;2023-03-01T03:14:56;23.90;;;17.60;;
7527;SDS011;3805;49.006;8.514;2023-03-01T03:17:44;23.53;;;17.37;;
7527;SDS011;3805;49.006;8.514;2023-03-01T03:20:34;21.70;;;17.80;;
7527;SDS011;3805;49.006;8.514;2023-03-01T03:23:23;25.23;;;18.83;;
7527;SDS011;3805;49.006;8.514;2023-03-01T03:26:12;26.90;;;18.17;;
7527;SDS011;3805;49.006;8.514;2023-03-01T03:29:02;25.43;;;18.00;;
7527;SDS011;3805;49.006;8.514;2023-03-01T03:31:50;25.30;;;18.57;;
7527;SDS011;3805;49.006;8.514;2023-03-01T03:34:39;26.80;;;18.83;;
7527;SDS011;3805;49.006;8.514;2023-03-01T03:37:29;24.97;;;17.30;;
7527;SDS011;3805;49.006;8.514;2023-03-01T03:40:36;25.90;;;18.70;;
7527;SDS011;3805;49.006;8.514;2023-03-01T03:43:25;26.03;;;19.13;;
7527;SDS011;3805;49.006;8.514;2023-03-01T03:46:14;25.17;;;19.00;;
7527;SDS011;3805;49.006;8.514;2023-03-01T03:49:04;24.87;;;17.10;;
7527;SDS011;3805;49.006;8.514;2023-03-01T03:51:52;21.93;;;16.73;;
7527;SDS011;3805;49.006;8.514;2023-03-01T03:54:42;22.60;;;18.60;;
7527;SDS011;3805;49.006;8.514;2023-03-01T03:57:30;24.80;;;18.87;;
7527;SDS011;3805;49.006;8.514;2023-03-01T04:00:20;25.53;;;19.73;;
7527;SDS011;3805;49.006;8.514;2023-03-01T04:03:11;24.87;;;18.70;;
7527;SDS011;3805;49.006;8.514;2023-03-01T04:06:01;23.27;;;18.27;;
7527;SDS011;3805;49.006;8.514;2023-03-01T04:08:51;27.17;;;19.77;;
7527;SDS011;3805;49.006;8.514;2023-03-01T04:11:46;27.37;;;19.17;;
7527;SDS011;3805;49.006;8.514;2023-03-01T04:14:35;23.17;;;17.70;;
7527;SDS011;3805;49.006;8.514;2023-03-01T04:17:23;30.10;;;18.80;;
7527;SDS011;3805;49.006;8.514;2023-03-01T04:20:12;23.93;;;18.07;;
7527;SDS011;3805;49.006;8.514;2023-03-01T04:23:05;27.00;;;19.00;;
7527;SDS011;3805;49.006;8.514;2023-03-01T04:26:00;32.37;;;20.17;;
7527;SDS011;3805;49.006;8.514;2023-03-01T04:28:50;27.87;;;19.70;;
7527;SDS011;3805;49.006;8.514;2023-03-01T04:31:38;29.27;;;21.20;;
7527;SDS011;3805;49.006;8.514;2023-03-01T04:34:27;26.30;;;18.50;;
7527;SDS011;3805;49.006;8.514;2023-03-01T04:37:15;28.83;;;20.20;;
7527;SDS011;3805;49.006;8.514;2023-03-01T04:40:04;24.73;;;19.13;;
7527;SDS011;3805;49.006;8.514;2023-03-01T04:43:03;25.27;;;19.50;;
7527;SDS011;3805;49.006;8.514;2023-03-01T04:45:53;28.60;;;20.60;;
7527;SDS011;3805;49.006;8.514;2023-03-01T04:48:42;29.33;;;20.07;;
7527;SDS011;3805;49.006;8.514;2023-03-01T04:51:31;31.10;;;20.63;;
7527;SDS011;3805;49.006;8.514;2023-03-01T04:54:20;29.83;;;21.33;;
7527;SDS011;3805;49.006;8.514;2023-03-01T04:57:08;28.97;;;21.50;;
7527;SDS011;3805;49.006;8.514;2023-03-01T04:59:57;24.93;;;19.90;;
7527;SDS011;3805;49.006;8.514;2023-03-01T05:02:48;28.63;;;19.30;;
7527;SDS011;3805;49.006;8.514;2023-03-01T05:05:40;27.33;;;19.23;;
7527;SDS011;3805;49.006;8.514;2023-03-01T05:08:28;29.40;;;20.00;;
7527;SDS011;3805;49.006;8.514;2023-03-01T05:11:17;26.80;;;18.90;;
7527;SDS011;3805;49.006;8.514;2023-03-01T05:14:06;27.63;;;20.60;;
7527;SDS011;3805;49.006;8.514;2023-03-01T05:16:55;26.63;;;18.10;;
7527;SDS011;3805;49.006;8.514;2023-03-01T05:19:52;30.27;;;18.77;;
7527;SDS011;3805;49.006;8.514;2023-03-01T05:22:42;30.40;;;21.10;;
7527;SDS011;3805;49.006;8.514;2023-03-01T05:25:31;26.83;;;19.60;;
7527;SDS011;3805;49.006;8.514;2023-03-01T05:28:20;28.40;;;20.10;;
7527;SDS011;3805;49.006;8.514;2023-03-01T05:31:08;28.97;;;20.30;;
7527;SDS011;3805;49.006;8.514;2023-03-01T05:33:57;31.00;;;22.83;;
7527;SDS011;3805;49.006;8.514;2023-03-01T05:36:47;30.23;;;21.00;;
7527;SDS011;3805;49.006;8.514;2023-03-01T05:39:35;27.03;;;20.70;;
7527;SDS011;3805;49.006;8.514;2023-03-01T05:42:24;31.97;;;20.20;;
7527;SDS011;3805;49.006;8.514;2023-03-01T05:45:13;28.47;;;20.10;;
7527;SDS011;3805;49.006;8.514;2023-03-01T05:48:02;27.60;;;21.20;;
7527;SDS011;3805;49.006;8.514;2023-03-01T05:50:51;35.70;;;20.53;;
7527;SDS011;3805;49.006;8.514;2023-03-01T05:53:41;29.27;;;21.70;;
7527;SDS011;3805;49.006;8.514;2023-03-01T05:56:30;28.50;;;20.63;;
7527;SDS011;3805;49.006;8.514;2023-03-01T05:59:20;28.47;;;21.00;;
7527;SDS011;3805;49.006;8.514;2023-03-01T06:02:09;29.73;;;19.20;;
7527;SDS011;3805;49.006;8.514;2023-03-01T06:04:57;36.63;;;21.90;;
7527;SDS011;3805;49.006;8.514;2023-03-01T06:07:46;29.10;;;21.70;;
7527;SDS011;3805;49.006;8.514;2023-03-01T06:10:36;27.47;;;20.70;;
7527;SDS011;3805;49.006;8.514;2023-03-01T06:13:24;26.10;;;19.63;;
7527;SDS011;3805;49.006;8.514;2023-03-01T06:16:14;28.73;;;21.10;;
7527;SDS011;3805;49.006;8.514;2023-03-01T06:19:02;30.50;;;21.47;;
7527;SDS011;3805;49.006;8.514;2023-03-01T06:21:51;29.30;;;22.17;;
7527;SDS011;3805;49.006;8.514;2023-03-01T06:24:40;35.20;;;22.47;;
7527;SDS011;3805;49.006;8.514;2023-03-01T06:27:29;28.53;;;21.30;;
7527;SDS011;3805;49.006;8.514;2023-03-01T06:30:18;34.30;;;22.13;;
7527;SDS011;3805;49.006;8.514;2023-03-01T06:33:08;28.47;;;22.07;;
7527;SDS011;3805;49.006;8.514;2023-03-01T06:35:56;35.57;;;22.10;;
7527;SDS011;3805;49.006;8.514;2023-03-01T06:38:45;32.50;;;24.80;;
7527;SDS011;3805;49.006;8.514;2023-03-01T06:41:34;34.70;;;23.10;;
7527;SDS011;3805;49.006;8.514;2023-03-01T06:44:23;34.23;;;22.57;;
7527;SDS011;3805;49.006;8.514;2023-03-01T06:47:12;28.90;;;21.20;;
7527;SDS011;3805;49.006;8.514;2023-03-01T06:50:01;36.80;;;22.33;;
7527;SDS011;3805;49.006;8.514;2023-03-01T06:52:54;34.27;;;23.07;;
7527;SDS011;3805;49.006;8.514;2023-03-01T06:55:43;25.47;;;19.57;;
7527;SDS011;3805;49.006;8.514;2023-03-01T06:58:32;28.80;;;21.77;;
7527;SDS011;3805;49.006;8.514;2023-03-01T07:01:22;28.60;;;21.00;;
7527;SDS011;3805;49.006;8.514;2023-03-01T07:04:11;29.07;;;21.03;;
7527;SDS011;3805;49.006;8.514;2023-03-01T07:07:00;35.17;;;24.00;;
7527;SDS011;3805;49.006;8.514;2023-03-01T07:09:48;31.60;;;22.90;;
7527;SDS011;3805;49.006;8.514;2023-03-01T07:12:37;29.13;;;20.90;;
7527;SDS011;3805;49.006;8.514;2023-03-01T07:15:26;28.60;;;20.90;;
7527;SDS011;3805;49.006;8.514;2023-03-01T07:18:16;33.27;;;23.77;;
7527;SDS011;3805;49.006;8.514;2023-03-01T07:21:05;29.17;;;21.47;;
7527;SDS011;3805;49.006;8.514;2023-03-01T07:23:54;36.07;;;21.87;;
7527;SDS011;3805;49.006;8.514;2023-03-01T07:26:43;28.73;;;20.90;;
7527;SDS011;3805;49.006;8.514;2023-03-01T07:29:31;34.47;;;21.80;;
7527;SDS011;3805;49.006;8.514;2023-03-01T07:32:20;29.80;;;21.17;;
7527;SDS011;3805;49.006;8.514;2023-03-01T07:35:10;24.73;;;20.70;;
7527;SDS011;3805;49.006;8.514;2023-03-01T07:37:59;27.90;;;20.63;;
7527;SDS011;3805;49.006;8.514;2023-03-01T07:40:47;24.57;;;19.70;;
7527;SDS011;3805;49.006;8.514;2023-03-01T07:43:36;24.77;;;19.20;;
7527;SDS011;3805;49.006;8.514;2023-03-01T07:46:24;28.87;;;22.23;;
7527;SDS011;3805;49.006;8.514;2023-03-01T07:49:14;29.40;;;20.70;;
7527;SDS011;3805;49.006;8.514;2023-03-01T07:52:04;27.80;;;21.00;;
7527;SDS011;3805;49.006;8.514;2023-03-01T07:54:52;30.13;;;21.53;;
7527;SDS011;3805;49.006;8.514;2023-03-01T07:57:41;28.10;;;21.30;;
7527;SDS011;3805;49.006;8.514;2023-03-01T08:00:29;27.93;;;19.30;;
7527;SDS011;3805;49.006;8.514;2023-03-01T08:03:19;29.50;;;21.17;;
7527;SDS011;3805;49.006;8.514;2023-03-01T08:06:08;23.67;;;19.50;;
7527;SDS011;3805;49.006;8.514;2023-03-01T08:08:59;28.87;;;22.10;;
7527;SDS011;3805;49.006;8.514;2023-03-01T08:11:47;28.90;;;20.77;;
7527;SDS011;3805;49.006;8.514;2023-03-01T08:14:36;29.17;;;19.60;;
7527;SDS011;3805;49.006;8.514;2023-03-01T08:17:25;29.87;;;20.37;;
7527;SDS011;3805;49.006;8.514;2023-03-01T08:20:13;27.40;;;20.60;;
7527;SDS011;3805;49.006;8.514;2023-03-01T08:23:04;28.13;;;21.00;;
7527;SDS011;3805;49.006;8.514;2023-03-01T08:25:54;25.17;;;21.17;;
7527;SDS011;3805;49.006;8.514;2023-03-01T08:28:43;32.10;;;21.53;;
7527;SDS011;3805;49.006;8.514;2023-03-01T08:31:32;28.23;;;20.10;;
7527;SDS011;3805;49.006;8.514;2023-03-01T08:34:23;26.87;;;20.67;;
7527;SDS011;3805;49.006;8.514;2023-03-01T08:37:12;29.23;;;21.63;;
7527;SDS011;3805;49.006;8.514;2023-03-01T08:40:00;27.37;;;20.93;;
7527;SDS011;3805;49.006;8.514;2023-03-01T08:42:52;28.53;;;21.27;;
7527;SDS011;3805;49.006;8.514;2023-03-01T08:45:40;32.47;;;22.00;;
7527;SDS011;3805;49.006;8.514;2023-03-01T08:48:29;26.10;;;20.13;;
7527;SDS011;3805;49.006;8.514;2023-03-01T08:51:18;27.57;;;22.53;;
7527;SDS011;3805;49.006;8.514;2023-03-01T08:54:10;27.30;;;21.67;;
7527;SDS011;3805;49.006;8.514;2023-03-01T08:57:01;26.50;;;20.30;;
7527;SDS011;3805;49.006;8.514;2023-03-01T08:59:51;29.30;;;21.80;;
7527;SDS011;3805;49.006;8.514;2023-03-01T09:02:39;28.93;;;21.03;;
7527;SDS011;3805;49.006;8.514;2023-03-01T09:05:28;25.10;;;20.27;;
7527;SDS011;3805;49.006;8.514;2023-03-01T09:08:19;30.97;;;22.50;;
7527;SDS011;3805;49.006;8.514;2023-03-01T09:11:10;30.73;;;22.20;;
7527;SDS011;3805;49.006;8.514;2023-03-01T09:14:00;28.63;;;21.60;;
7527;SDS011;3805;49.006;8.514;2023-03-01T09:16:50;30.43;;;20.73;;
7527;SDS011;3805;49.006;8.514;2023-03-01T09:19:38;26.80;;;21.10;;
7527;SDS011;3805;49.006;8.514;2023-03-01T09:22:27;27.73;;;21.20;;
7527;SDS011;3805;49.006;8.514;2023-03-01T09:25:16;30.83;;;21.73;;
7527;SDS011;3805;49.006;8.514;2023-03-01T09:28:04;27.60;;;21.60;;
7527;SDS011;3805;49.006;8.514;2023-03-01T09:30:53;29.80;;;20.80;;
7527;SDS011;3805;49.006;8.514;2023-03-01T09:33:45;29.70;;;20.60;;
7527;SDS011;3805;49.006;8.514;2023-03-01T09:36:34;30.50;;;21.73;;
7527;SDS011;3805;49.006;8.514;2023-03-01T09:39:23;32.77;;;21.60;;
7527;SDS011;3805;49.006;8.514;2023-03-01T09:42:12;30.70;;;21.43;;
7527;SDS011;3805;49.006;8.514;2023-03-01T09:45:02;35.50;;;21.97;;
7527;SDS011;3805;49.006;8.514;2023-03-01T09:47:52;29.20;;;22.40;;
7527;SDS011;3805;49.006;8.514;2023-03-01T09:50:42;31.43;;;21.30;;
7527;SDS011;3805;49.006;8.514;2023-03-01T09:53:33;31.03;;;22.20;;
7527;SDS011;3805;49.006;8.514;2023-03-01T09:56:24;34.40;;;22.77;;
7527;SDS011;3805;49.006;8.514;2023-03-01T09:59:18;29.37;;;21.60;;
7527;SDS011;3805;49.006;8.514;2023-03-01T10:02:17;33.87;;;21.30;;
7527;SDS011;3805;49.006;8.514;2023-03-01T10:05:14;31.43;;;21.43;;
7527;SDS011;3805;49.006;8.514;2023-03-01T10:08:26;33.23;;;22.67;;
7527;SDS011;3805;49.006;8.514;2023-03-01T10:11:20;30.10;;;22.10;;
7527;SDS011;3805;49.006;8.514;2023-03-01T10:14:14;30.63;;;22.57;;
7527;SDS011;3805;49.006;8.514;2023-03-01T10:17:08;29.67;;;21.77;;
7527;SDS011;3805;49.006;8.514;2023-03-01T10:20:16;29.50;;;21.70;;
7527;SDS011;3805;49.006;8.514;2023-03-01T10:23:07;35.00;;;22.90;;
7527;SDS011;3805;49.006;8.514;2023-03-01T10:26:01;31.80;;;24.10;;
7527;SDS011;3805;49.006;8.514;2023-03-01T10:28:58;28.73;;;22.37;;
7527;SDS011;3805;49.006;8.514;2023-03-01T10:31:52;32.33;;;21.30;;
7527;SDS011;3805;49.006;8.514;2023-03-01T10:34:42;29.20;;;22.50;;
7527;SDS011;3805;49.006;8.514;2023-03-01T10:37:31;28.63;;;21.97;;
7527;SDS011;3805;49.006;8.514;2023-03-01T10:40:19;27.37;;;20.33;;
7527;SDS011;3805;49.006;8.514;2023-03-01T10:43:10;29.67;;;21.70;;
7527;SDS011;3805;49.006;8.514;2023-03-01T10:46:00;29.73;;;22.13;;
7527;SDS011;3805;49.006;8.514;2023-03-01T10:48:53;34.97;;;23.30;;
7527;SDS011;3805;49.006;8.514;2023-03-01T10:51:54;28.63;;;20.97;;
7527;SDS011;3805;49.006;8.514;2023-03-01T10:54:43;25.77;;;20.53;;
7527;SDS011;3805;49.006;8.514;2023-03-01T10:57:39;29.27;;;22.27;;
7527;SDS011;3805;49.006;8.514;2023-03-01T11:00:30;27.93;;;21.93;;
7527;SDS011;3805;49.006;8.514;2023-03-01T11:03:21;32.03;;;22.20;;
7527;SDS011;3805;49.006;8.514;2023-03-01T11:06:20;28.27;;;22.50;;
7527;SDS011;3805;49.006;8.514;2023-03-01T11:09:18;27.00;;;21.80;;
7527;SDS011;3805;49.006;8.514;2023-03-01T11:12:13;25.67;;;20.80;;
7527;SDS011;3805;49.006;8.514;2023-03-01T11:15:03;33.37;;;22.37;;
7527;SDS011;3805;49.006;8.514;2023-03-01T11:17:53;32.07;;;23.63;;
7527;SDS011;3805;49.006;8.514;2023-03-01T11:20:59;28.10;;;22.57;;
7527;SDS011;3805;49.006;8.514;2023-03-01T11:23:50;30.70;;;23.23;;
7527;SDS011;3805;49.006;8.514;2023-03-01T11:26:39;28.47;;;23.10;;
7527;SDS011;3805;49.006;8.514;2023-03-01T11:29:30;31.10;;;23.87;;
7527;SDS011;3805;49.006;8.514;2023-03-01T11:32:39;29.23;;;22.10;;
7527;SDS011;3805;49.006;8.514;2023-03-01T11:35:31;29.03;;;22.83;;
7527;SDS011;3805;49.006;8.514;2023-03-01T11:38:23;29.83;;;22.27;;
7527;SDS011;3805;49.006;8.514;2023-03-01T11:41:13;26.63;;;21.90;;
7527;SDS011;3805;49.006;8.514;2023-03-01T11:44:05;29.30;;;23.90;;
7527;SDS011;3805;49.006;8.514;2023-03-01T11:47:11;30.10;;;22.60;;
7527;SDS011;3805;49.006;8.514;2023-03-01T11:50:10;31.70;;;22.30;;
7527;SDS011;3805;49.006;8.514;2023-03-01T11:53:11;29.47;;;23.50;;
7527;SDS011;3805;49.006;8.514;2023-03-01T11:56:12;27.70;;;22.57;;
7527;SDS011;3805;49.006;8.514;2023-03-01T11:59:22;30.80;;;24.20;;
7527;SDS011;3805;49.006;8.514;2023-03-01T12:02:47;28.90;;;21.50;;
7527;SDS011;3805;49.006;8.514;2023-03-01T12:06:05;32.07;;;22.10;;
7527;SDS011;3805;49.006;8.514;2023-03-01T12:09:04;30.30;;;22.70;;
7527;SDS011;3805;49.006;8.514;2023-03-01T12:12:06;32.30;;;22.23;;
7527;SDS011;3805;49.006;8.514;2023-03-01T12:15:17;30.10;;;23.60;;
7527;SDS011;3805;49.006;8.514;2023-03-01T12:18:13;28.40;;;23.27;;
7527;SDS011;3805;49.006;8.514;2023-03-01T12:21:22;29.83;;;22.90;;
7527;SDS011;3805;49.006;8.514;2023-03-01T12:24:26;28.17;;;22.37;;
7527;SDS011;3805;49.006;8.514;2023-03-01T12:27:42;31.77;;;23.27;;
7527;SDS011;3805;49.006;8.514;2023-03-01T12:30:56;28.83;;;21.40;;
7527;SDS011;3805;49.006;8.514;2023-03-01T12:33:54;29.83;;;22.77;;
7527;SDS011;3805;49.006;8.514;2023-03-01T12:36:58;29.33;;;22.43;;
7527;SDS011;3805;49.006;8.514;2023-03-01T12:40:01;31.67;;;23.90;;
7527;SDS011;3805;49.006;8.514;2023-03-01T12:43:03;29.83;;;22.37;;
7527;SDS011;3805;49.006;8.514;2023-03-01T12:46:03;32.00;;;23.60;;
7527;SDS011;3805;49.006;8.514;2023-03-01T12:49:03;29.43;;;22.50;;
7527;SDS011;3805;49.006;8.514;2023-03-01T12:51:57;31.87;;;21.77;;
7527;SDS011;3805;49.006;8.514;2023-03-01T12:54:48;30.60;;;22.23;;
7527;SDS011;3805;49.006;8.514;2023-03-01T12:57:40;29.40;;;22.17;;
7527;SDS011;3805;49.006;8.514;2023-03-01T13:00:31;33.13;;;23.40;;
7527;SDS011;3805;49.006;8.514;2023-03-01T13:03:25;33.40;;;24.40;;
7527;SDS011;3805;49.006;8.514;2023-03-01T13:06:21;31.77;;;22.57;;
7527;SDS011;3805;49.006;8.514;2023-03-01T13:09:25;30.43;;;21.53;;
7527;SDS011;3805;49.006;8.514;2023-03-01T13:15:47;31.27;;;22.50;;
7527;SDS011;3805;49.006;8.514;2023-03-01T13:18:38;27.40;;;22.40;;
7527;SDS011;3805;49.006;8.514;2023-03-01T13:21:29;29.40;;;23.80;;
7527;SDS011;3805;49.006;8.514;2023-03-01T13:24:25;28.00;;;22.60;;
7527;SDS011;3805;49.006;8.514;2023-03-01T13:27:23;29.37;;;22.80;;
7527;SDS011;3805;49.006;8.514;2023-03-01T13:36:45;30.67;;;22.47;;
7527;SDS011;3805;49.006;8.514;2023-03-01T13:39:39;26.63;;;21.60;;
7527;SDS011;3805;49.006;8.514;2023-03-01T13:42:30;29.77;;;22.67;;
7527;SDS011;3805;49.006;8.514;2023-03-01T13:45:21;30.97;;;20.47;;
7527;SDS011;3805;49.006;8.514;2023-03-01T13:48:15;29.93;;;22.90;;
7527;SDS011;3805;49.006;8.514;2023-03-01T13:51:06;28.23;;;21.67;;
7527;SDS011;3805;49.006;8.514;2023-03-01T13:53:56;26.70;;;21.70;;
7527;SDS011;3805;49.006;8.514;2023-03-01T13:56:47;27.90;;;21.00;;
7527;SDS011;3805;49.006;8.514;2023-03-01T13:59:35;27.73;;;21.73;;
7527;SDS011;3805;49.006;8.514;2023-03-01T14:02:35;27.77;;;20.87;;
7527;SDS011;3805;49.006;8.514;2023-03-01T14:05:24;24.07;;;19.60;;
7527;SDS011;3805;49.006;8.514;2023-03-01T14:08:24;26.97;;;20.73;;
7527;SDS011;3805;49.006;8.514;2023-03-01T14:11:31;29.03;;;22.30;;
7527;SDS011;3805;49.006;8.514;2023-03-01T14:14:45;26.83;;;20.50;;
7527;SDS011;3805;49.006;8.514;2023-03-01T14:17:48;29.63;;;22.10;;
7527;SDS011;3805;49.006;8.514;2023-03-01T14:20:41;28.60;;;22.27;;
7527;SDS011;3805;49.006;8.514;2023-03-01T14:23:33;28.83;;;20.43;;
7527;SDS011;3805;49.006;8.514;2023-03-01T14:26:23;35.80;;;22.90;;
7527;SDS011;3805;49.006;8.514;2023-03-01T14:29:33;27.73;;;21.43;;
7527;SDS011;3805;49.006;8.514;2023-03-01T14:32:24;26.23;;;21.83;;
7527;SDS011;3805;49.006;8.514;2023-03-01T14:35:19;25.93;;;21.83;;
7527;SDS011;3805;49.006;8.514;2023-03-01T14:38:19;25.97;;;20.83;;
7527;SDS011;3805;49.006;8.514;2023-03-01T14:41:10;27.63;;;21.70;;
7527;SDS011;3805;49.006;8.514;2023-03-01T14:44:03;25.27;;;22.00;;
7527;SDS011;3805;49.006;8.514;2023-03-01T14:46:54;28.33;;;22.67;;
7527;SDS011;3805;49.006;8.514;2023-03-01T14:49:44;23.50;;;18.73;;
7527;SDS011;3805;49.006;8.514;2023-03-01T14:52:34;26.47;;;19.47;;
7527;SDS011;3805;49.006;8.514;2023-03-01T14:55:25;23.93;;;19.90;;
7527;SDS011;3805;49.006;8.514;2023-03-01T14:58:18;26.73;;;19.50;;
7527;SDS011;3805;49.006;8.514;2023-03-01T15:01:10;28.17;;;20.00;;
7527;SDS011;3805;49.006;8.514;2023-03-01T15:04:02;26.10;;;20.23;;
7527;SDS011;3805;49.006;8.514;2023-03-01T15:06:50;24.70;;;18.70;;
7527;SDS011;3805;49.006;8.514;2023-03-01T15:09:39;25.87;;;20.13;;
7527;SDS011;3805;49.006;8.514;2023-03-01T15:12:36;29.80;;;20.23;;
7527;SDS011;3805;49.006;8.514;2023-03-01T15:15:32;24.10;;;19.40;;
7527;SDS011;3805;49.006;8.514;2023-03-01T15:18:25;27.67;;;21.43;;
7527;SDS011;3805;49.006;8.514;2023-03-01T15:21:16;29.77;;;19.07;;
7527;SDS011;3805;49.006;8.514;2023-03-01T15:24:06;25.17;;;20.13;;
7527;SDS011;3805;49.006;8.514;2023-03-01T15:27:12;24.37;;;18.50;;
7527;SDS011;3805;49.006;8.514;2023-03-01T15:30:03;25.30;;;20.00;;
7527;SDS011;3805;49.006;8.514;2023-03-01T15:36:33;23.50;;;18.83;;
7527;SDS011;3805;49.006;8.514;2023-03-01T15:39:32;23.50;;;18.30;;
7527;SDS011;3805;49.006;8.514;2023-03-01T15:42:37;26.10;;;20.63;;
7527;SDS011;3805;49.006;8.514;2023-03-01T15:45:27;24.40;;;19.20;;
7527;SDS011;3805;49.006;8.514;2023-03-01T15:48:17;27.77;;;20.33;;
7527;SDS011;3805;49.006;8.514;2023-03-01T15:51:09;22.77;;;19.27;;
7527;SDS011;3805;49.006;8.514;2023-03-01T15:54:04;26.57;;;19.70;;
7527;SDS011;3805;49.006;8.514;2023-03-01T15:57:07;25.93;;;19.37;;
7527;SDS011;3805;49.006;8.514;2023-03-01T15:59:58;24.03;;;18.80;;
7527;SDS011;3805;49.006;8.514;2023-03-01T16:02:47;25.10;;;20.67;;
7527;SDS011;3805;49.006;8.514;2023-03-01T16:05:36;33.20;;;21.67;;
7527;SDS011;3805;49.006;8.514;2023-03-01T16:08:25;23.30;;;19.67;;
7527;SDS011;3805;49.006;8.514;2023-03-01T16:11:16;28.27;;;20.80;;
7527;SDS011;3805;49.006;8.514;2023-03-01T16:14:05;25.17;;;18.50;;
7527;SDS011;3805;49.006;8.514;2023-03-01T16:16:54;30.83;;;22.23;;
7527;SDS011;3805;49.006;8.514;2023-03-01T16:19:42;21.83;;;19.00;;
7527;SDS011;3805;49.006;8.514;2023-03-01T16:22:31;25.30;;;20.17;;
7527;SDS011;3805;49.006;8.514;2023-03-01T16:25:20;28.33;;;19.50;;
7527;SDS011;3805;49.006;8.514;2023-03-01T16:28:10;24.30;;;18.63;;
7527;SDS011;3805;49.006;8.514;2023-03-01T16:30:59;27.23;;;22.73;;
7527;SDS011;3805;49.006;8.514;2023-03-01T16:33:48;25.83;;;18.83;;
7527;SDS011;3805;49.006;8.514;2023-03-01T16:36:38;26.43;;;19.37;;
7527;SDS011;3805;49.006;8.514;2023-03-01T16:39:28;27.67;;;20.27;;
7527;SDS011;3805;49.006;8.514;2023-03-01T16:42:17;28.60;;;21.13;;
7527;SDS011;3805;49.006;8.514;2023-03-01T16:45:08;29.83;;;21.70;;
7527;SDS011;3805;49.006;8.514;2023-03-01T16:48:10;26.60;;;19.13;;
7527;SDS011;3805;49.006;8.514;2023-03-01T16:50:59;31.67;;;21.20;;
7527;SDS011;3805;49.006;8.514;2023-03-01T16:53:48;26.37;;;19.50;;
7527;SDS011;3805;49.006;8.514;2023-03-01T16:56:36;25.20;;;20.00;;
7527;SDS011;3805;49.006;8.514;2023-03-01T16:59:26;25.43;;;19.90;;
7527;SDS011;3805;49.006;8.514;2023-03-01T17:02:16;34.50;;;19.30;;
7527;SDS011;3805;49.006;8.514;2023-03-01T17:05:07;24.93;;;19.93;;
7527;SDS011;3805;49.006;8.514;2023-03-01T17:07:57;26.00;;;19.10;;
7527;SDS011;3805;49.006;8.514;2023-03-01T17:10:46;28.43;;;20.50;;
7527;SDS011;3805;49.006;8.514;2023-03-01T17:13:35;25.93;;;19.07;;
7527;SDS011;3805;49.006;8.514;2023-03-01T17:16:24;22.90;;;18.90;;
7527;SDS011;3805;49.006;8.514;2023-03-01T17:19:15;24.90;;;18.90;;
7527;SDS011;3805;49.006;8.514;2023-03-01T17:22:04;25.83;;;20.63;;
7527;SDS011;3805;49.006;8.514;2023-03-01T17:24:53;28.50;;;21.13;;
7527;SDS011;3805;49.006;8.514;2023-03-01T17:27:41;26.13;;;19.37;;
7527;SDS011;3805;49.006;8.514;2023-03-01T17:30:30;31.67;;;21.07;;